sensor_id;sensor_type;location;lat;lon;timestamp;P1;durP1;ratioP1;P2;durP2;ratioP2
63699;SDS011;49845;47.130;142.766;2023-05-29T00:01:40;5.63;;;1.10;;
63699;SDS011;49845;47.130;142.766;2023-05-29T00:04:11;2.67;;;1.00;;
63699;SDS011;49845;47.130;142.766;2023-05-29T00:06:42;2.42;;;0.80;;
63699;SDS011;49845;47.130;142.766;2023-05-29T00:09:13;0.85;;;0.60;;
63699;SDS011;49845;47.130;142.766;2023-05-29T00:11:45;2.92;;;0.82;;
63699;SDS011;49845;47.130;142.766;2023-05-29T00:14:18;3.33;;;0.75;;
63699;SDS011;49845;47.130;142.766;2023-05-29T00:16:51;1.92;;;0.90;;
63699;SDS011;49845;47.130;142.766;2023-05-29T00:19:22;0.65;;;0.57;;
63699;SDS011;49845;47.130;142.766;2023-05-29T00:21:53;1.45;;;0.88;;
63699;SDS011;49845;47.130;142.766;2023-05-29T00:24:23;1.77;;;0.70;;
63699;SDS011;49845;47.130;142.766;2023-05-29T00:26:55;1.98;;;0.60;;
63699;SDS011;49845;47.130;142.766;2023-05-29T00:29:26;4.65;;;1.25;;
63699;SDS011;49845;47.130;142.766;2023-05-29T00:31:57;3.50;;;1.25;;
63699;SDS011;49845;47.130;142.766;2023-05-29T00:34:28;6.70;;;1.73;;
63699;SDS011;49845;47.130;142.766;2023-05-29T00:36:58;9.13;;;1.70;;
63699;SDS011;49845;47.130;142.766;2023-05-29T00:39:29;6.30;;;1.10;;
63699;SDS011;49845;47.130;142.766;2023-05-29T00:42:01;4.07;;;0.70;;
63699;SDS011;49845;47.130;142.766;2023-05-29T00:44:32;3.38;;;0.90;;
63699;SDS011;49845;47.130;142.766;2023-05-29T00:47:03;3.50;;;0.57;;
63699;SDS011;49845;47.130;142.766;2023-05-29T00:49:35;1.67;;;0.50;;
63699;SDS011;49845;47.130;142.766;2023-05-29T00:52:07;1.35;;;0.60;;
63699;SDS011;49845;47.130;142.766;2023-05-29T00:54:42;2.65;;;0.80;;
63699;SDS011;49845;47.130;142.766;2023-05-29T00:57:15;4.32;;;1.00;;
63699;SDS011;49845;47.130;142.766;2023-05-29T00:59:47;3.85;;;0.80;;
63699;SDS011;49845;47.130;142.766;2023-05-29T01:02:17;6.05;;;1.30;;
63699;SDS011;49845;47.130;142.766;2023-05-29T01:04:50;1.80;;;0.68;;
63699;SDS011;49845;47.130;142.766;2023-05-29T01:07:21;1.25;;;0.55;;
63699;SDS011;49845;47.130;142.766;2023-05-29T01:09:58;0.77;;;0.52;;
63699;SDS011;49845;47.130;142.766;2023-05-29T01:12:33;2.13;;;0.68;;
63699;SDS011;49845;47.130;142.766;2023-05-29T01:15:18;2.20;;;0.50;;
63699;SDS011;49845;47.130;142.766;2023-05-29T01:20:48;2.33;;;0.90;;
63699;SDS011;49845;47.130;142.766;2023-05-29T01:23:32;3.45;;;0.70;;
63699;SDS011;49845;47.130;142.766;2023-05-29T01:26:21;0.50;;;0.50;;
63699;SDS011;49845;47.130;142.766;2023-05-29T01:29:05;1.55;;;0.70;;
63699;SDS011;49845;47.130;142.766;2023-05-29T01:31:39;0.60;;;0.50;;
63699;SDS011;49845;47.130;142.766;2023-05-29T01:34:11;1.33;;;0.43;;
63699;SDS011;49845;47.130;142.766;2023-05-29T01:36:42;2.47;;;0.52;;
63699;SDS011;49845;47.130;142.766;2023-05-29T01:39:14;6.13;;;1.10;;
63699;SDS011;49845;47.130;142.766;2023-05-29T01:41:48;3.45;;;0.90;;
63699;SDS011;49845;47.130;142.766;2023-05-29T01:44:20;3.70;;;0.70;;
63699;SDS011;49845;47.130;142.766;2023-05-29T01:46:51;6.55;;;1.67;;
63699;SDS011;49845;47.130;142.766;2023-05-29T01:49:25;0.90;;;0.52;;
63699;SDS011;49845;47.130;142.766;2023-05-29T01:51:57;0.65;;;0.60;;
63699;SDS011;49845;47.130;142.766;2023-05-29T01:54:28;1.73;;;0.60;;
63699;SDS011;49845;47.130;142.766;2023-05-29T01:57:00;1.75;;;0.50;;
63699;SDS011;49845;47.130;142.766;2023-05-29T01:59:33;4.82;;;1.10;;
63699;SDS011;49845;47.130;142.766;2023-05-29T02:02:06;1.95;;;0.52;;
63699;SDS011;49845;47.130;142.766;2023-05-29T02:04:37;2.45;;;0.60;;
63699;SDS011;49845;47.130;142.766;2023-05-29T02:07:07;0.85;;;0.60;;
63699;SDS011;49845;47.130;142.766;2023-05-29T02:09:39;0.82;;;0.50;;
63699;SDS011;49845;47.130;142.766;2023-05-29T02:12:12;0.50;;;0.50;;
63699;SDS011;49845;47.130;142.766;2023-05-29T02:14:42;1.67;;;0.68;;
63699;SDS011;49845;47.130;142.766;2023-05-29T02:17:14;3.65;;;1.10;;
63699;SDS011;49845;47.130;142.766;2023-05-29T02:19:46;1.42;;;0.80;;
63699;SDS011;49845;47.130;142.766;2023-05-29T02:22:17;3.65;;;1.20;;
63699;SDS011;49845;47.130;142.766;2023-05-29T02:24:48;2.38;;;0.80;;
63699;SDS011;49845;47.130;142.766;2023-05-29T02:27:20;0.98;;;0.50;;
63699;SDS011;49845;47.130;142.766;2023-05-29T02:29:51;2.72;;;1.00;;
63699;SDS011;49845;47.130;142.766;2023-05-29T02:32:21;0.63;;;0.50;;
63699;SDS011;49845;47.130;142.766;2023-05-29T02:34:52;0.70;;;0.60;;
63699;SDS011;49845;47.130;142.766;2023-05-29T02:37:23;0.43;;;0.43;;
63699;SDS011;49845;47.130;142.766;2023-05-29T02:39:54;0.98;;;0.50;;
63699;SDS011;49845;47.130;142.766;2023-05-29T02:42:26;0.50;;;0.40;;
63699;SDS011;49845;47.130;142.766;2023-05-29T02:44:57;3.40;;;1.30;;
63699;SDS011;49845;47.130;142.766;2023-05-29T02:47:28;0.50;;;0.50;;
63699;SDS011;49845;47.130;142.766;2023-05-29T02:49:59;2.67;;;0.70;;
63699;SDS011;49845;47.130;142.766;2023-05-29T02:52:30;0.50;;;0.50;;
63699;SDS011;49845;47.130;142.766;2023-05-29T02:55:01;0.82;;;0.43;;
63699;SDS011;49845;47.130;142.766;2023-05-29T02:57:34;0.50;;;0.50;;
63699;SDS011;49845;47.130;142.766;2023-05-29T03:00:06;1.83;;;0.50;;
63699;SDS011;49845;47.130;142.766;2023-05-29T03:02:41;2.70;;;1.00;;
63699;SDS011;49845;47.130;142.766;2023-05-29T03:05:11;2.33;;;0.57;;
63699;SDS011;49845;47.130;142.766;2023-05-29T03:07:42;1.20;;;0.60;;
63699;SDS011;49845;47.130;142.766;2023-05-29T03:10:12;1.23;;;0.60;;
63699;SDS011;49845;47.130;142.766;2023-05-29T03:12:46;2.10;;;0.70;;
63699;SDS011;49845;47.130;142.766;2023-05-29T03:15:17;1.85;;;0.45;;
63699;SDS011;49845;47.130;142.766;2023-05-29T03:17:48;0.63;;;0.50;;
63699;SDS011;49845;47.130;142.766;2023-05-29T03:20:18;1.90;;;0.60;;
63699;SDS011;49845;47.130;142.766;2023-05-29T03:22:49;0.57;;;0.47;;
63699;SDS011;49845;47.130;142.766;2023-05-29T03:25:20;0.80;;;0.50;;
63699;SDS011;49845;47.130;142.766;2023-05-29T03:27:52;0.65;;;0.57;;
63699;SDS011;49845;47.130;142.766;2023-05-29T03:30:23;0.60;;;0.45;;
63699;SDS011;49845;47.130;142.766;2023-05-29T03:32:53;1.30;;;0.60;;
63699;SDS011;49845;47.130;142.766;2023-05-29T03:35:24;0.52;;;0.50;;
63699;SDS011;49845;47.130;142.766;2023-05-29T03:37:54;1.03;;;0.70;;
63699;SDS011;49845;47.130;142.766;2023-05-29T03:40:25;1.77;;;0.60;;
63699;SDS011;49845;47.130;142.766;2023-05-29T03:43:00;1.30;;;0.50;;
63699;SDS011;49845;47.130;142.766;2023-05-29T03:45:31;1.23;;;0.60;;
63699;SDS011;49845;47.130;142.766;2023-05-29T03:48:01;1.30;;;0.52;;
63699;SDS011;49845;47.130;142.766;2023-05-29T03:50:32;0.90;;;0.70;;
63699;SDS011;49845;47.130;142.766;2023-05-29T03:53:02;0.40;;;0.40;;
63699;SDS011;49845;47.130;142.766;2023-05-29T03:55:35;1.60;;;0.70;;
63699;SDS011;49845;47.130;142.766;2023-05-29T03:58:08;2.13;;;0.68;;
63699;SDS011;49845;47.130;142.766;2023-05-29T04:00:39;1.40;;;0.67;;
63699;SDS011;49845;47.130;142.766;2023-05-29T04:03:10;3.83;;;1.23;;
63699;SDS011;49845;47.130;142.766;2023-05-29T04:05:41;1.57;;;0.80;;
63699;SDS011;49845;47.130;142.766;2023-05-29T04:08:11;0.97;;;0.60;;
63699;SDS011;49845;47.130;142.766;2023-05-29T04:10:42;1.23;;;0.80;;
63699;SDS011;49845;47.130;142.766;2023-05-29T04:13:15;0.87;;;0.60;;
63699;SDS011;49845;47.130;142.766;2023-05-29T04:15:46;4.37;;;0.93;;
63699;SDS011;49845;47.130;142.766;2023-05-29T04:18:16;17.03;;;2.63;;
63699;SDS011;49845;47.130;142.766;2023-05-29T04:20:47;6.40;;;3.07;;
63699;SDS011;49845;47.130;142.766;2023-05-29T04:23:18;2.10;;;1.40;;
63699;SDS011;49845;47.130;142.766;2023-05-29T04:25:49;2.67;;;0.80;;
63699;SDS011;49845;47.130;142.766;2023-05-29T04:28:22;2.10;;;0.50;;
63699;SDS011;49845;47.130;142.766;2023-05-29T04:30:52;0.63;;;0.60;;
63699;SDS011;49845;47.130;142.766;2023-05-29T04:33:25;0.80;;;0.50;;
63699;SDS011;49845;47.130;142.766;2023-05-29T04:35:56;1.00;;;0.70;;
63699;SDS011;49845;47.130;142.766;2023-05-29T04:38:28;0.70;;;0.70;;
63699;SDS011;49845;47.130;142.766;2023-05-29T04:40:59;0.97;;;0.70;;
63699;SDS011;49845;47.130;142.766;2023-05-29T04:43:31;1.50;;;0.73;;
63699;SDS011;49845;47.130;142.766;2023-05-29T04:46:04;1.40;;;0.77;;
63699;SDS011;49845;47.130;142.766;2023-05-29T04:48:40;2.33;;;0.60;;
63699;SDS011;49845;47.130;142.766;2023-05-29T04:51:11;0.60;;;0.60;;
63699;SDS011;49845;47.130;142.766;2023-05-29T04:53:42;3.13;;;1.37;;
63699;SDS011;49845;47.130;142.766;2023-05-29T04:56:12;4.50;;;1.30;;
63699;SDS011;49845;47.130;142.766;2023-05-29T04:58:44;2.40;;;1.50;;
63699;SDS011;49845;47.130;142.766;2023-05-29T05:01:19;1.23;;;0.60;;
63699;SDS011;49845;47.130;142.766;2023-05-29T05:03:49;0.77;;;0.60;;
63699;SDS011;49845;47.130;142.766;2023-05-29T05:06:22;1.93;;;0.93;;
63699;SDS011;49845;47.130;142.766;2023-05-29T05:08:53;1.73;;;0.77;;
63699;SDS011;49845;47.130;142.766;2023-05-29T05:11:24;0.87;;;0.70;;
63699;SDS011;49845;47.130;142.766;2023-05-29T05:13:56;2.30;;;1.30;;
63699;SDS011;49845;47.130;142.766;2023-05-29T05:16:26;1.30;;;0.70;;
63699;SDS011;49845;47.130;142.766;2023-05-29T05:18:57;1.90;;;1.00;;
63699;SDS011;49845;47.130;142.766;2023-05-29T05:21:28;6.37;;;1.00;;
63699;SDS011;49845;47.130;142.766;2023-05-29T05:23:59;3.23;;;0.70;;
63699;SDS011;49845;47.130;142.766;2023-05-29T05:26:30;0.87;;;0.60;;
63699;SDS011;49845;47.130;142.766;2023-05-29T05:29:03;0.70;;;0.40;;
63699;SDS011;49845;47.130;142.766;2023-05-29T05:31:33;0.50;;;0.50;;
63699;SDS011;49845;47.130;142.766;2023-05-29T05:34:04;1.30;;;0.53;;
63699;SDS011;49845;47.130;142.766;2023-05-29T05:36:34;5.00;;;1.20;;
63699;SDS011;49845;47.130;142.766;2023-05-29T05:39:05;8.17;;;1.33;;
63699;SDS011;49845;47.130;142.766;2023-05-29T05:41:36;9.07;;;1.60;;
63699;SDS011;49845;47.130;142.766;2023-05-29T05:44:08;4.87;;;1.33;;
63699;SDS011;49845;47.130;142.766;2023-05-29T05:46:38;6.47;;;1.10;;
63699;SDS011;49845;47.130;142.766;2023-05-29T05:49:10;7.73;;;1.43;;
63699;SDS011;49845;47.130;142.766;2023-05-29T05:51:41;7.27;;;1.40;;
63699;SDS011;49845;47.130;142.766;2023-05-29T05:54:11;5.47;;;1.63;;
63699;SDS011;49845;47.130;142.766;2023-05-29T05:56:42;10.30;;;1.67;;
63699;SDS011;49845;47.130;142.766;2023-05-29T05:59:14;6.00;;;1.77;;
63699;SDS011;49845;47.130;142.766;2023-05-29T06:01:46;5.73;;;1.30;;
63699;SDS011;49845;47.130;142.766;2023-05-29T06:04:17;6.23;;;1.67;;
63699;SDS011;49845;47.130;142.766;2023-05-29T06:06:48;10.13;;;2.03;;
63699;SDS011;49845;47.130;142.766;2023-05-29T06:09:18;9.63;;;2.00;;
63699;SDS011;49845;47.130;142.766;2023-05-29T06:11:49;7.80;;;2.00;;
63699;SDS011;49845;47.130;142.766;2023-05-29T06:14:21;13.20;;;1.77;;
63699;SDS011;49845;47.130;142.766;2023-05-29T06:16:53;6.63;;;2.03;;
63699;SDS011;49845;47.130;142.766;2023-05-29T06:19:24;16.27;;;2.40;;
63699;SDS011;49845;47.130;142.766;2023-05-29T06:21:54;10.57;;;2.27;;
63699;SDS011;49845;47.130;142.766;2023-05-29T06:24:25;8.93;;;2.10;;
63699;SDS011;49845;47.130;142.766;2023-05-29T06:26:55;8.93;;;2.13;;
63699;SDS011;49845;47.130;142.766;2023-05-29T06:29:28;10.13;;;2.53;;
63699;SDS011;49845;47.130;142.766;2023-05-29T06:31:59;23.33;;;2.57;;
63699;SDS011;49845;47.130;142.766;2023-05-29T06:34:30;9.02;;;2.30;;
63699;SDS011;49845;47.130;142.766;2023-05-29T06:37:03;16.35;;;2.53;;
63699;SDS011;49845;47.130;142.766;2023-05-29T06:39:34;10.68;;;2.40;;
63699;SDS011;49845;47.130;142.766;2023-05-29T06:42:05;9.93;;;2.40;;
63699;SDS011;49845;47.130;142.766;2023-05-29T06:44:37;11.75;;;1.95;;
63699;SDS011;49845;47.130;142.766;2023-05-29T06:47:08;9.63;;;2.28;;
63699;SDS011;49845;47.130;142.766;2023-05-29T06:49:38;8.15;;;1.90;;
63699;SDS011;49845;47.130;142.766;2023-05-29T06:52:10;9.38;;;1.75;;
63699;SDS011;49845;47.130;142.766;2023-05-29T06:54:41;10.68;;;2.00;;
63699;SDS011;49845;47.130;142.766;2023-05-29T06:57:14;7.50;;;2.50;;
63699;SDS011;49845;47.130;142.766;2023-05-29T06:59:47;8.20;;;2.22;;
63699;SDS011;49845;47.130;142.766;2023-05-29T07:02:17;8.57;;;2.00;;
63699;SDS011;49845;47.130;142.766;2023-05-29T07:04:48;10.87;;;1.90;;
63699;SDS011;49845;47.130;142.766;2023-05-29T07:07:19;5.87;;;1.80;;
63699;SDS011;49845;47.130;142.766;2023-05-29T07:09:50;6.67;;;1.57;;
63699;SDS011;49845;47.130;142.766;2023-05-29T07:12:22;6.67;;;1.73;;
63699;SDS011;49845;47.130;142.766;2023-05-29T07:14:55;5.87;;;1.67;;
63699;SDS011;49845;47.130;142.766;2023-05-29T07:17:26;8.27;;;1.70;;
63699;SDS011;49845;47.130;142.766;2023-05-29T07:19:56;7.23;;;2.00;;
63699;SDS011;49845;47.130;142.766;2023-05-29T07:22:27;8.97;;;1.87;;
63699;SDS011;49845;47.130;142.766;2023-05-29T07:24:58;6.57;;;2.13;;
63699;SDS011;49845;47.130;142.766;2023-05-29T07:27:29;5.57;;;2.37;;
63699;SDS011;49845;47.130;142.766;2023-05-29T07:30:01;11.97;;;2.87;;
63699;SDS011;49845;47.130;142.766;2023-05-29T07:32:34;14.33;;;2.03;;
63699;SDS011;49845;47.130;142.766;2023-05-29T07:35:05;6.57;;;2.20;;
63699;SDS011;49845;47.130;142.766;2023-05-29T07:37:36;13.23;;;1.93;;
63699;SDS011;49845;47.130;142.766;2023-05-29T07:40:07;9.83;;;2.23;;
63699;SDS011;49845;47.130;142.766;2023-05-29T07:42:38;11.67;;;2.13;;
63699;SDS011;49845;47.130;142.766;2023-05-29T07:45:10;9.30;;;2.10;;
63699;SDS011;49845;47.130;142.766;2023-05-29T07:47:41;8.30;;;2.30;;
63699;SDS011;49845;47.130;142.766;2023-05-29T07:50:13;9.27;;;2.10;;
63699;SDS011;49845;47.130;142.766;2023-05-29T07:52:46;7.77;;;1.83;;
63699;SDS011;49845;47.130;142.766;2023-05-29T07:55:17;6.30;;;1.60;;
63699;SDS011;49845;47.130;142.766;2023-05-29T07:57:48;7.70;;;1.57;;
63699;SDS011;49845;47.130;142.766;2023-05-29T08:00:20;10.50;;;2.07;;
63699;SDS011;49845;47.130;142.766;2023-05-29T08:02:51;6.40;;;2.23;;
63699;SDS011;49845;47.130;142.766;2023-05-29T08:05:22;11.03;;;1.97;;
63699;SDS011;49845;47.130;142.766;2023-05-29T08:07:53;7.68;;;1.90;;
63699;SDS011;49845;47.130;142.766;2023-05-29T08:10:24;9.73;;;2.60;;
63699;SDS011;49845;47.130;142.766;2023-05-29T08:12:55;12.53;;;2.43;;
63699;SDS011;49845;47.130;142.766;2023-05-29T08:15:27;10.20;;;2.60;;
63699;SDS011;49845;47.130;142.766;2023-05-29T08:17:58;5.37;;;2.30;;
63699;SDS011;49845;47.130;142.766;2023-05-29T08:20:29;8.83;;;2.20;;
63699;SDS011;49845;47.130;142.766;2023-05-29T08:23:02;9.87;;;2.17;;
63699;SDS011;49845;47.130;142.766;2023-05-29T08:25:33;10.43;;;1.93;;
63699;SDS011;49845;47.130;142.766;2023-05-29T08:28:04;8.17;;;2.30;;
63699;SDS011;49845;47.130;142.766;2023-05-29T08:30:38;8.40;;;2.30;;
63699;SDS011;49845;47.130;142.766;2023-05-29T08:33:09;15.40;;;5.93;;
63699;SDS011;49845;47.130;142.766;2023-05-29T08:35:39;19.13;;;6.27;;
63699;SDS011;49845;47.130;142.766;2023-05-29T08:38:10;12.80;;;5.73;;
63699;SDS011;49845;47.130;142.766;2023-05-29T08:40:41;14.40;;;5.40;;
63699;SDS011;49845;47.130;142.766;2023-05-29T08:43:13;12.43;;;4.50;;
63699;SDS011;49845;47.130;142.766;2023-05-29T08:45:47;8.40;;;3.20;;
63699;SDS011;49845;47.130;142.766;2023-05-29T08:48:22;9.30;;;3.00;;
63699;SDS011;49845;47.130;142.766;2023-05-29T08:50:54;7.17;;;2.57;;
63699;SDS011;49845;47.130;142.766;2023-05-29T08:53:26;9.87;;;3.53;;
63699;SDS011;49845;47.130;142.766;2023-05-29T08:55:58;7.97;;;2.40;;
63699;SDS011;49845;47.130;142.766;2023-05-29T08:58:31;10.27;;;2.20;;
63699;SDS011;49845;47.130;142.766;2023-05-29T09:01:05;11.17;;;2.47;;
63699;SDS011;49845;47.130;142.766;2023-05-29T09:03:38;13.73;;;2.50;;
63699;SDS011;49845;47.130;142.766;2023-05-29T09:06:09;10.20;;;2.70;;
63699;SDS011;49845;47.130;142.766;2023-05-29T09:08:42;4.73;;;2.10;;
63699;SDS011;49845;47.130;142.766;2023-05-29T09:11:14;8.03;;;2.37;;
63699;SDS011;49845;47.130;142.766;2023-05-29T09:13:45;6.93;;;2.50;;
63699;SDS011;49845;47.130;142.766;2023-05-29T09:16:34;8.07;;;3.50;;
63699;SDS011;49845;47.130;142.766;2023-05-29T09:19:29;10.40;;;3.10;;
63699;SDS011;49845;47.130;142.766;2023-05-29T09:22:35;10.67;;;3.27;;
63699;SDS011;49845;47.130;142.766;2023-05-29T09:28:35;30.37;;;3.60;;
63699;SDS011;49845;47.130;142.766;2023-05-29T09:31:26;10.10;;;2.93;;
63699;SDS011;49845;47.130;142.766;2023-05-29T09:34:17;9.10;;;3.05;;
63699;SDS011;49845;47.130;142.766;2023-05-29T09:37:01;10.47;;;2.50;;
63699;SDS011;49845;47.130;142.766;2023-05-29T09:40:17;8.80;;;2.57;;
63699;SDS011;49845;47.130;142.766;2023-05-29T09:43:25;10.20;;;3.30;;
63699;SDS011;49845;47.130;142.766;2023-05-29T09:45:58;9.80;;;4.30;;
63699;SDS011;49845;47.130;142.766;2023-05-29T09:48:34;14.73;;;4.90;;
63699;SDS011;49845;47.130;142.766;2023-05-29T09:51:22;20.52;;;10.80;;
63699;SDS011;49845;47.130;142.766;2023-05-29T09:58:04;12.60;;;3.60;;
63699;SDS011;49845;47.130;142.766;2023-05-29T10:01:13;17.35;;;2.90;;
63699;SDS011;49845;47.130;142.766;2023-05-29T10:04:06;17.67;;;3.25;;
63699;SDS011;49845;47.130;142.766;2023-05-29T10:06:45;10.68;;;3.13;;
63699;SDS011;49845;47.130;142.766;2023-05-29T10:09:19;10.88;;;2.65;;
63699;SDS011;49845;47.130;142.766;2023-05-29T10:11:58;8.98;;;2.38;;
63699;SDS011;49845;47.130;142.766;2023-05-29T10:14:38;11.68;;;2.65;;
63699;SDS011;49845;47.130;142.766;2023-05-29T10:17:24;12.35;;;2.60;;
63699;SDS011;49845;47.130;142.766;2023-05-29T10:21:07;5.32;;;2.13;;
63699;SDS011;49845;47.130;142.766;2023-05-29T10:27:22;4.15;;;1.65;;
63699;SDS011;49845;47.130;142.766;2023-05-29T10:30:06;7.00;;;1.42;;
63699;SDS011;49845;47.130;142.766;2023-05-29T10:32:50;5.38;;;1.30;;
63699;SDS011;49845;47.130;142.766;2023-05-29T10:38:16;6.45;;;1.40;;
63699;SDS011;49845;47.130;142.766;2023-05-29T10:40:56;4.43;;;1.52;;
63699;SDS011;49845;47.130;142.766;2023-05-29T10:47:37;4.95;;;1.20;;
63699;SDS011;49845;47.130;142.766;2023-05-29T10:50:13;3.72;;;1.88;;
63699;SDS011;49845;47.130;142.766;2023-05-29T10:53:06;4.63;;;2.00;;
63699;SDS011;49845;47.130;142.766;2023-05-29T10:56:02;6.40;;;1.90;;
63699;SDS011;49845;47.130;142.766;2023-05-29T10:58:45;3.38;;;1.75;;
63699;SDS011;49845;47.130;142.766;2023-05-29T11:01:23;9.63;;;2.47;;
63699;SDS011;49845;47.130;142.766;2023-05-29T11:10:13;5.20;;;2.40;;
63699;SDS011;49845;47.130;142.766;2023-05-29T11:13:04;6.93;;;2.08;;
63699;SDS011;49845;47.130;142.766;2023-05-29T11:15:40;5.13;;;2.20;;
63699;SDS011;49845;47.130;142.766;2023-05-29T11:18:21;5.82;;;2.00;;
63699;SDS011;49845;47.130;142.766;2023-05-29T11:20:57;5.53;;;1.80;;
63699;SDS011;49845;47.130;142.766;2023-05-29T11:23:31;4.43;;;2.05;;
63699;SDS011;49845;47.130;142.766;2023-05-29T11:26:03;7.70;;;1.95;;
63699;SDS011;49845;47.130;142.766;2023-05-29T11:28:39;5.53;;;1.80;;
63699;SDS011;49845;47.130;142.766;2023-05-29T11:31:10;5.60;;;2.40;;
63699;SDS011;49845;47.130;142.766;2023-05-29T11:33:45;8.38;;;4.70;;
63699;SDS011;49845;47.130;142.766;2023-05-29T11:36:25;9.20;;;4.25;;
63699;SDS011;49845;47.130;142.766;2023-05-29T11:39:00;7.13;;;2.03;;
63699;SDS011;49845;47.130;142.766;2023-05-29T11:41:33;7.53;;;3.70;;
63699;SDS011;49845;47.130;142.766;2023-05-29T11:44:15;5.88;;;3.10;;
63699;SDS011;49845;47.130;142.766;2023-05-29T11:47:07;5.90;;;3.53;;
63699;SDS011;49845;47.130;142.766;2023-05-29T11:49:45;6.07;;;3.97;;
63699;SDS011;49845;47.130;142.766;2023-05-29T11:52:22;3.20;;;1.63;;
63699;SDS011;49845;47.130;142.766;2023-05-29T11:55:05;4.93;;;1.73;;
63699;SDS011;49845;47.130;142.766;2023-05-29T11:57:36;7.97;;;4.50;;
63699;SDS011;49845;47.130;142.766;2023-05-29T12:00:14;7.10;;;3.58;;
63699;SDS011;49845;47.130;142.766;2023-05-29T12:02:57;7.15;;;3.65;;
63699;SDS011;49845;47.130;142.766;2023-05-29T12:05:45;4.45;;;2.33;;
63699;SDS011;49845;47.130;142.766;2023-05-29T12:11:14;10.98;;;6.47;;
63699;SDS011;49845;47.130;142.766;2023-05-29T12:14:00;11.35;;;5.78;;
63699;SDS011;49845;47.130;142.766;2023-05-29T12:17:09;9.50;;;6.60;;
63699;SDS011;49845;47.130;142.766;2023-05-29T12:20:12;12.40;;;6.55;;
63699;SDS011;49845;47.130;142.766;2023-05-29T12:22:58;7.93;;;3.38;;
63699;SDS011;49845;47.130;142.766;2023-05-29T12:26:06;3.60;;;2.33;;
63699;SDS011;49845;47.130;142.766;2023-05-29T12:33:01;3.78;;;2.35;;
63699;SDS011;49845;47.130;142.766;2023-05-29T12:35:53;5.05;;;2.25;;
63699;SDS011;49845;47.130;142.766;2023-05-29T12:38:56;10.23;;;5.22;;
63699;SDS011;49845;47.130;142.766;2023-05-29T12:42:21;7.65;;;5.22;;
63699;SDS011;49845;47.130;142.766;2023-05-29T12:48:51;7.38;;;1.52;;
63699;SDS011;49845;47.130;142.766;2023-05-29T12:52:37;5.38;;;1.10;;
63699;SDS011;49845;47.130;142.766;2023-05-29T12:55:54;4.82;;;1.25;;
63699;SDS011;49845;47.130;142.766;2023-05-29T12:58:40;1.83;;;1.10;;
63699;SDS011;49845;47.130;142.766;2023-05-29T13:01:12;4.00;;;1.08;;
63699;SDS011;49845;47.130;142.766;2023-05-29T13:03:53;2.42;;;1.60;;
63699;SDS011;49845;47.130;142.766;2023-05-29T13:06:25;3.22;;;1.58;;
63699;SDS011;49845;47.130;142.766;2023-05-29T13:09:18;2.67;;;1.20;;
63699;SDS011;49845;47.130;142.766;2023-05-29T13:12:28;3.10;;;1.20;;
63699;SDS011;49845;47.130;142.766;2023-05-29T13:15:36;5.07;;;2.22;;
63699;SDS011;49845;47.130;142.766;2023-05-29T13:18:14;3.60;;;1.73;;
63699;SDS011;49845;47.130;142.766;2023-05-29T13:21:23;2.95;;;1.33;;
63699;SDS011;49845;47.130;142.766;2023-05-29T13:25:42;2.95;;;1.10;;
63699;SDS011;49845;47.130;142.766;2023-05-29T13:28:10;2.03;;;1.40;;
63699;SDS011;49845;47.130;142.766;2023-05-29T13:30:51;3.70;;;1.20;;
63699;SDS011;49845;47.130;142.766;2023-05-29T13:33:25;3.15;;;1.40;;
63699;SDS011;49845;47.130;142.766;2023-05-29T13:36:07;4.90;;;1.55;;
63699;SDS011;49845;47.130;142.766;2023-05-29T13:39:10;3.40;;;1.20;;
63699;SDS011;49845;47.130;142.766;2023-05-29T13:41:44;5.13;;;1.30;;
63699;SDS011;49845;47.130;142.766;2023-05-29T13:44:34;2.92;;;1.45;;
63699;SDS011;49845;47.130;142.766;2023-05-29T13:47:26;4.82;;;1.58;;
63699;SDS011;49845;47.130;142.766;2023-05-29T13:51:02;2.80;;;1.25;;
63699;SDS011;49845;47.130;142.766;2023-05-29T13:53:39;2.38;;;1.30;;
63699;SDS011;49845;47.130;142.766;2023-05-29T13:59:40;4.22;;;1.60;;
63699;SDS011;49845;47.130;142.766;2023-05-29T14:02:17;4.60;;;1.17;;
63699;SDS011;49845;47.130;142.766;2023-05-29T14:04:56;5.10;;;1.67;;
63699;SDS011;49845;47.130;142.766;2023-05-29T14:07:30;4.93;;;1.50;;
63699;SDS011;49845;47.130;142.766;2023-05-29T14:10:10;6.88;;;1.67;;
63699;SDS011;49845;47.130;142.766;2023-05-29T14:12:42;4.75;;;1.65;;
63699;SDS011;49845;47.130;142.766;2023-05-29T14:15:28;4.78;;;1.50;;
63699;SDS011;49845;47.130;142.766;2023-05-29T14:18:07;6.43;;;1.63;;
63699;SDS011;49845;47.130;142.766;2023-05-29T14:20:49;3.47;;;1.30;;
63699;SDS011;49845;47.130;142.766;2023-05-29T14:23:26;1.98;;;1.52;;
63699;SDS011;49845;47.130;142.766;2023-05-29T14:26:26;9.10;;;1.90;;
63699;SDS011;49845;47.130;142.766;2023-05-29T14:29:08;5.03;;;1.50;;
63699;SDS011;49845;47.130;142.766;2023-05-29T14:32:04;6.38;;;1.92;;
63699;SDS011;49845;47.130;142.766;2023-05-29T14:35:45;5.35;;;1.95;;
63699;SDS011;49845;47.130;142.766;2023-05-29T14:38:21;4.60;;;2.30;;
63699;SDS011;49845;47.130;142.766;2023-05-29T14:40:58;5.68;;;1.10;;
63699;SDS011;49845;47.130;142.766;2023-05-29T14:43:37;3.40;;;1.58;;
63699;SDS011;49845;47.130;142.766;2023-05-29T14:46:11;3.17;;;1.42;;
63699;SDS011;49845;47.130;142.766;2023-05-29T14:48:46;3.78;;;1.50;;
63699;SDS011;49845;47.130;142.766;2023-05-29T14:51:21;4.05;;;1.70;;
63699;SDS011;49845;47.130;142.766;2023-05-29T14:53:53;2.72;;;1.58;;
63699;SDS011;49845;47.130;142.766;2023-05-29T14:56:28;5.78;;;1.90;;
63699;SDS011;49845;47.130;142.766;2023-05-29T14:58:58;4.78;;;1.73;;
63699;SDS011;49845;47.130;142.766;2023-05-29T15:01:29;5.18;;;1.73;;
63699;SDS011;49845;47.130;142.766;2023-05-29T15:04:01;4.65;;;1.52;;
63699;SDS011;49845;47.130;142.766;2023-05-29T15:06:35;8.18;;;1.95;;
63699;SDS011;49845;47.130;142.766;2023-05-29T15:09:06;5.03;;;1.80;;
63699;SDS011;49845;47.130;142.766;2023-05-29T15:11:39;4.47;;;1.50;;
63699;SDS011;49845;47.130;142.766;2023-05-29T15:14:16;5.43;;;1.60;;
63699;SDS011;49845;47.130;142.766;2023-05-29T15:16:46;4.78;;;1.55;;
63699;SDS011;49845;47.130;142.766;2023-05-29T15:19:19;3.53;;;1.75;;
63699;SDS011;49845;47.130;142.766;2023-05-29T15:21:49;5.40;;;1.83;;
63699;SDS011;49845;47.130;142.766;2023-05-29T15:24:20;5.60;;;1.88;;
63699;SDS011;49845;47.130;142.766;2023-05-29T15:26:54;4.68;;;1.88;;
63699;SDS011;49845;47.130;142.766;2023-05-29T15:29:26;7.15;;;1.73;;
63699;SDS011;49845;47.130;142.766;2023-05-29T15:32:00;8.05;;;2.00;;
63699;SDS011;49845;47.130;142.766;2023-05-29T15:34:32;5.03;;;1.60;;
63699;SDS011;49845;47.130;142.766;2023-05-29T15:37:04;4.18;;;1.70;;
63699;SDS011;49845;47.130;142.766;2023-05-29T15:39:38;4.70;;;1.75;;
63699;SDS011;49845;47.130;142.766;2023-05-29T15:42:08;3.13;;;1.50;;
63699;SDS011;49845;47.130;142.766;2023-05-29T15:44:44;5.88;;;1.88;;
63699;SDS011;49845;47.130;142.766;2023-05-29T15:47:21;3.33;;;1.50;;
63699;SDS011;49845;47.130;142.766;2023-05-29T15:49:56;6.85;;;2.22;;
63699;SDS011;49845;47.130;142.766;2023-05-29T15:52:27;4.68;;;1.77;;
63699;SDS011;49845;47.130;142.766;2023-05-29T15:55:12;6.35;;;1.90;;